Time;durP1;ratioP1;P1;durP2;ratioP2;P2;SDS_P1;SDS_P2;PMS_P1;PMS_P2;Temp;Humidity;BMP_temperature;BMP_pressure;BME280_temperature;BME280_humidity;BME280_pressure;Samples;Min_cycle;Max_cycle;Signal;HPM_P1;HPM_P2
2022/01/15 00:01:26;;;;;;;37.78;15.98;;;;;;;7.43;85.47;102644.09;7385374;19;20015;-67
2022/01/15 00:03:53;;;;;;;45.80;20.75;;;;;;;7.37;84.96;102643.59;7382818;19;20011;-67
2022/01/15 00:06:20;;;;;;;50.60;20.20;;;;;;;7.36;85.96;102647.16;7386096;19;20011;-68
2022/01/15 00:08:50;;;;;;;40.35;16.27;;;;;;;7.33;85.52;102648.16;7384248;19;20007;-71
2022/01/15 00:11:17;;;;;;;42.80;19.27;;;;;;;7.32;85.91;102639.47;7384560;19;20007;-66
2022/01/15 00:13:51;;;;;;;43.47;18.30;;;;;;;7.34;85.76;102641.16;7383409;19;20010;-66
2022/01/15 00:16:44;;;;;;;40.90;16.70;;;;;;;7.34;85.07;102644.63;7387987;19;20045;-67
2022/01/15 00:19:13;;;;;;;35.50;16.35;;;;;;;7.34;85.79;102631.53;7384507;19;20075;-67
2022/01/15 00:21:41;;;;;;;39.78;16.33;;;;;;;7.34;85.40;102630.69;7390133;19;20018;-68
2022/01/15 00:24:08;;;;;;;45.40;20.17;;;;;;;7.34;85.33;102620.22;7391918;19;20742;-68
2022/01/15 00:26:35;;;;;;;42.17;16.38;;;;;;;7.36;85.51;102623.59;7391980;19;20010;-68
2022/01/15 00:29:03;;;;;;;37.58;16.40;;;;;;;7.32;84.52;102626.38;7391731;19;20018;-66
2022/01/15 00:31:30;;;;;;;33.25;14.70;;;;;;;7.27;83.89;102617.09;7388761;19;20017;-68
2022/01/15 00:33:57;;;;;;;35.30;15.70;;;;;;;7.23;84.35;102615.59;7391346;19;20006;-67
2022/01/15 00:36:26;;;;;;;33.83;15.73;;;;;;;7.17;84.59;102611.53;7390957;19;20475;-68
2022/01/15 00:38:53;;;;;;;41.67;15.85;;;;;;;7.17;84.45;102606.31;7392073;19;20025;-67
2022/01/15 00:41:21;;;;;;;43.42;16.35;;;;;;;7.13;84.68;102603.94;7391591;19;20002;-67
2022/01/15 00:43:51;;;;;;;36.05;14.93;;;;;;;7.10;84.83;102596.28;7389920;19;20013;-68
2022/01/15 00:46:19;;;;;;;36.80;15.88;;;;;;;7.05;84.98;102591.31;7392321;19;20010;-67
2022/01/15 00:48:48;;;;;;;37.65;17.63;;;;;;;7.13;86.38;102589.09;7394537;19;20017;-68
2022/01/15 00:51:15;;;;;;;34.10;16.00;;;;;;;7.11;85.51;102580.47;7391410;19;20467;-66
2022/01/15 00:53:42;;;;;;;34.08;15.23;;;;;;;7.08;85.06;102572.81;7390549;19;20130;-68
2022/01/15 00:56:10;;;;;;;34.97;15.18;;;;;;;7.05;84.97;102575.59;7391272;19;20014;-68
2022/01/15 00:58:37;;;;;;;40.60;17.92;;;;;;;6.99;85.92;102568.09;7393380;19;20022;-67
2022/01/15 01:01:05;;;;;;;33.92;16.08;;;;;;;7.01;85.93;102566.22;7390873;19;20234;-68
2022/01/15 01:03:42;;;;;;;33.97;15.00;;;;;;;7.00;85.19;102563.72;7390823;19;20010;-68
2022/01/15 01:06:08;;;;;;;35.38;15.45;;;;;;;7.00;84.99;102569.78;7391127;19;20007;-68
2022/01/15 01:08:36;;;;;;;44.40;18.77;;;;;;;6.97;85.01;102569.94;7392007;19;20387;-67
2022/01/15 01:11:11;;;;;;;36.58;16.50;;;;;;;6.98;84.98;102565.56;7389860;19;20017;-67
2022/01/15 01:22:36;;;;;;;40.00;16.27;;;;;;;6.89;85.23;102548.63;7390749;19;20018;-65
2022/01/15 01:24:35;;;;;;;34.28;14.90;;;;;;;6.83;85.13;102548.94;7388633;19;20040;-68
2022/01/15 01:27:09;;;;;;;33.92;14.85;;;;;;;6.81;85.46;102542.94;7391716;19;20010;-67
2022/01/15 01:32:10;;;;;;;37.30;15.45;;;;;;;6.78;85.55;102540.50;7392506;19;20015;-66
2022/01/15 01:34:40;;;;;;;34.50;15.02;;;;;;;6.79;85.35;102535.22;7389136;19;20035;-68
2022/01/15 01:39:52;;;;;;;35.72;16.45;;;;;;;6.76;85.25;102529.28;7392719;19;20007;-66
2022/01/15 01:45:12;;;;;;;58.10;23.65;;;;;;;6.77;85.84;102523.13;7392143;19;20098;-68
2022/01/15 01:47:43;;;;;;;34.55;16.10;;;;;;;6.70;85.77;102517.41;7392980;19;20022;-66
2022/01/15 01:50:17;;;;;;;30.95;15.85;;;;;;;6.64;85.97;102512.53;7391883;19;20566;-68
2022/01/15 01:52:47;;;;;;;74.15;17.08;;;;;;;6.58;86.03;102505.03;7389158;19;20074;-67
2022/01/15 01:55:15;;;;;;;37.28;16.27;;;;;;;6.51;86.40;102502.81;7391754;19;20025;-68
2022/01/15 01:57:43;;;;;;;38.20;16.50;;;;;;;6.50;86.36;102507.22;7392768;19;20037;-68
2022/01/15 02:00:14;;;;;;;34.50;14.88;;;;;;;6.53;85.88;102500.97;7394094;19;20015;-66
2022/01/15 02:02:41;;;;;;;31.90;14.75;;;;;;;6.49;85.98;102502.06;7392757;19;20014;-67
2022/01/15 02:05:12;;;;;;;34.33;15.48;;;;;;;6.28;86.62;102504.09;7391784;19;20034;-65
2022/01/15 02:07:43;;;;;;;38.85;15.10;;;;;;;6.19;86.90;102499.38;7395724;19;20050;-66
2022/01/15 02:10:13;;;;;;;39.22;15.18;;;;;;;6.20;87.04;102498.41;7394937;19;20018;-66
2022/01/15 02:12:41;;;;;;;39.85;14.73;;;;;;;6.16;86.51;102497.75;7390597;19;20015;-68
2022/01/15 02:15:12;;;;;;;35.63;13.98;;;;;;;6.16;86.95;102499.50;7392917;19;20088;-68
2022/01/15 02:17:41;;;;;;;30.15;12.82;;;;;;;6.11;87.15;102504.16;7391923;19;20003;-66
2022/01/15 02:23:45;;;;;;;31.20;11.98;;;;;;;5.99;87.40;102495.22;7394504;19;20452;-66
2022/01/15 02:29:44;;;;;;;64.55;13.05;;;;;;;5.80;88.50;102484.84;7391446;19;20015;-67
2022/01/15 02:32:20;;;;;;;51.80;12.57;;;;;;;5.81;89.39;102480.47;7391554;19;20017;-67
2022/01/15 02:35:04;;;;;;;58.33;13.40;;;;;;;5.76;89.25;102483.34;7391359;19;20504;-66
2022/01/15 02:37:38;;;;;;;32.90;11.82;;;;;;;5.71;90.25;102471.44;7391455;19;20046;-69
2022/01/15 02:40:18;;;;;;;82.57;14.07;;;;;;;5.72;90.61;102471.38;7389633;19;20368;-66
2022/01/15 02:43:04;;;;;;;48.22;13.05;;;;;;;5.72;90.71;102473.13;7389577;19;20017;-67
2022/01/15 02:45:45;;;;;;;49.95;13.35;;;;;;;5.69;91.21;102466.28;7389788;19;20015;-66
2022/01/15 02:48:18;;;;;;;34.72;12.07;;;;;;;5.72;91.53;102465.31;7390218;19;20150;-66
2022/01/15 02:50:50;;;;;;;40.17;13.45;;;;;;;5.71;91.17;102455.78;7390597;19;20007;-66
2022/01/15 02:53:33;;;;;;;45.55;11.60;;;;;;;5.69;91.03;102449.81;7389442;19;20353;-67
2022/01/15 02:56:15;;;;;;;39.33;12.95;;;;;;;5.65;90.87;102448.25;7390677;19;20018;-66
2022/01/15 02:59:00;;;;;;;31.80;10.88;;;;;;;5.63;90.72;102458.81;7392995;19;20047;-67
2022/01/15 03:01:31;;;;;;;38.42;11.10;;;;;;;5.62;90.92;102446.66;7388452;19;20018;-67
2022/01/15 03:04:02;;;;;;;36.72;11.55;;;;;;;5.58;90.80;102432.94;7391284;19;20037;-67
2022/01/15 03:06:37;;;;;;;27.83;10.77;;;;;;;5.56;90.87;102432.16;7393855;19;20035;-66
2022/01/15 03:09:05;;;;;;;38.40;11.45;;;;;;;5.56;91.13;102433.94;7390739;19;20015;-66
2022/01/15 03:11:35;;;;;;;30.25;10.88;;;;;;;5.55;91.29;102432.25;7390023;19;20102;-68
2022/01/15 03:14:19;;;;;;;38.05;11.80;;;;;;;5.59;91.28;102431.16;7391520;19;20026;-66
2022/01/15 03:16:56;;;;;;;32.78;10.70;;;;;;;5.61;90.98;102424.09;7389247;19;20078;-66
2022/01/15 03:19:45;;;;;;;105.75;14.48;;;;;;;5.66;91.34;102429.06;7388155;19;20070;-68
2022/01/15 03:22:17;;;;;;;38.55;11.95;;;;;;;5.74;92.23;102421.69;7391589;19;20557;-67
2022/01/15 03:24:58;;;;;;;31.38;10.38;;;;;;;5.75;91.63;102429.41;7389556;19;20026;-66
2022/01/15 03:27:30;;;;;;;35.88;10.90;;;;;;;5.75;91.59;102428.56;7389633;19;20038;-68
2022/01/15 03:30:00;;;;;;;471.48;29.75;;;;;;;5.76;91.47;102423.28;7391819;19;20086;-68
2022/01/15 03:32:27;;;;;;;36.75;11.27;;;;;;;5.84;92.28;102422.88;7392463;19;20010;-68
2022/01/15 03:35:11;;;;;;;37.13;10.20;;;;;;;5.82;92.03;102415.13;7388594;19;20011;-66
2022/01/15 03:37:42;;;;;;;190.20;17.35;;;;;;;5.82;92.41;102409.91;7391646;19;20508;-67
2022/01/15 03:40:33;;;;;;;34.53;10.43;;;;;;;5.86;92.92;102408.78;7393624;19;20487;-67
2022/01/15 03:43:01;;;;;;;79.75;13.57;;;;;;;5.85;92.91;102408.88;7389202;19;20082;-66
2022/01/15 03:45:28;;;;;;;231.55;20.08;;;;;;;5.89;93.82;102392.16;7388728;19;20010;-67
2022/01/15 03:48:14;;;;;;;105.72;15.95;;;;;;;5.91;93.95;102390.28;7390931;19;20011;-66
2022/01/15 03:50:52;;;;;;;90.57;16.17;;;;;;;5.91;94.18;102392.91;7387883;19;20018;-66
2022/01/15 03:53:24;;;;;;;80.63;14.38;;;;;;;5.93;94.82;102391.91;7387389;19;20011;-67
2022/01/15 03:55:52;;;;;;;52.35;13.65;;;;;;;5.90;94.86;102392.06;7392923;19;20094;-67
2022/01/15 03:58:19;;;;;;;176.40;17.58;;;;;;;5.91;95.04;102385.91;7395592;19;20294;-66
2022/01/15 04:00:47;;;;;;;40.25;10.88;;;;;;;5.92;95.05;102378.94;7395661;19;20025;-65
2022/01/15 04:03:17;;;;;;;48.95;11.48;;;;;;;5.92;94.84;102379.78;7399545;19;20018;-67
2022/01/15 04:05:50;;;;;;;120.95;15.93;;;;;;;5.90;94.10;102376.38;7399116;19;20345;-68
2022/01/15 04:08:17;;;;;;;43.65;11.60;;;;;;;5.92;94.40;102379.78;7398976;19;20406;-65
2022/01/15 04:10:50;;;;;;;290.40;22.15;;;;;;;5.94;94.44;102383.13;7395777;19;20070;-67
2022/01/15 04:13:41;;;;;;;45.50;12.25;;;;;;;5.96;94.80;102372.59;7397410;19;20015;-67
2022/01/15 04:16:13;;;;;;;145.15;16.80;;;;;;;5.95;94.55;102378.75;7398794;19;20554;-66
2022/01/15 04:18:57;;;;;;;46.13;12.03;;;;;;;5.99;94.72;102383.72;7398552;19;20011;-67
2022/01/15 04:21:27;;;;;;;44.30;12.55;;;;;;;6.01;94.07;102394.94;7399662;19;20086;-67
2022/01/15 04:23:54;;;;;;;41.53;11.35;;;;;;;6.04;94.03;102399.16;7395283;19;20010;-69
2022/01/15 04:26:26;;;;;;;37.30;11.85;;;;;;;6.07;94.13;102400.75;7394585;19;20025;-66
2022/01/15 04:28:54;;;;;;;42.47;11.90;;;;;;;6.07;94.02;102393.75;7395588;19;20018;-66
2022/01/15 04:31:21;;;;;;;40.15;11.50;;;;;;;6.05;93.66;102390.38;7394972;19;20477;-66
2022/01/15 04:33:48;;;;;;;43.13;12.73;;;;;;;6.04;92.89;102401.78;7396572;19;20014;-67
2022/01/15 04:36:15;;;;;;;97.05;14.00;;;;;;;6.03;92.46;102394.00;7397412;19;20018;-66
2022/01/15 04:38:44;;;;;;;44.63;11.88;;;;;;;6.02;92.33;102390.56;7395317;19;20018;-67
2022/01/15 04:41:11;;;;;;;43.85;11.80;;;;;;;6.02;92.52;102387.94;7393349;19;20027;-70
2022/01/15 04:43:38;;;;;;;35.80;10.82;;;;;;;6.02;92.20;102393.16;7394066;19;20190;-67
2022/01/15 04:46:05;;;;;;;43.38;11.57;;;;;;;5.99;92.21;102388.94;7394310;19;20014;-64
2022/01/15 04:48:32;;;;;;;40.83;12.05;;;;;;;5.97;92.97;102376.91;7394282;19;20042;-67
2022/01/15 04:50:59;;;;;;;42.08;12.75;;;;;;;5.99;92.47;102382.91;7398592;19;20019;-67
2022/01/15 04:53:26;;;;;;;151.65;15.02;;;;;;;5.96;92.31;102383.88;7395657;19;20027;-67
2022/01/15 04:55:53;;;;;;;37.38;11.35;;;;;;;5.97;92.76;102376.91;7396062;19;20010;-69
2022/01/15 04:58:20;;;;;;;31.80;10.02;;;;;;;5.94;92.55;102388.34;7394648;19;20029;-68
2022/01/15 05:00:49;;;;;;;212.07;16.30;;;;;;;5.93;92.66;102383.22;7397403;19;20014;-67
2022/01/15 05:03:29;;;;;;;40.83;11.20;;;;;;;5.91;93.10;102379.84;7394775;19;20014;-68
2022/01/15 05:06:02;;;;;;;303.48;18.70;;;;;;;5.91;93.81;102372.84;7394007;19;20022;-67
2022/01/15 05:08:56;;;;;;;258.02;19.20;;;;;;;5.89;94.29;102366.84;7396030;19;20013;-68
2022/01/15 05:11:31;;;;;;;40.67;11.05;;;;;;;5.86;94.56;102347.88;7396257;19;20030;-68
2022/01/15 05:13:58;;;;;;;31.15;9.52;;;;;;;5.82;93.55;102343.75;7391579;19;20030;-67
2022/01/15 05:16:25;;;;;;;105.90;12.50;;;;;;;5.81;93.25;102340.31;7396471;19;20010;-67
2022/01/15 05:18:51;;;;;;;43.42;10.63;;;;;;;5.82;93.80;102341.16;7391319;19;20414;-66
2022/01/15 05:21:18;;;;;;;30.25;9.07;;;;;;;5.85;94.33;102341.81;7397010;19;20078;-67
2022/01/15 05:23:45;;;;;;;33.13;10.52;;;;;;;5.82;93.53;102331.56;7393373;19;20026;-66
2022/01/15 05:26:12;;;;;;;36.60;10.13;;;;;;;5.83;93.63;102330.63;7396169;19;20134;-66
2022/01/15 05:28:39;;;;;;;129.50;14.57;;;;;;;5.85;93.59;102343.56;7397269;19;20014;-67
2022/01/15 05:31:06;;;;;;;45.78;12.95;;;;;;;5.85;94.10;102347.03;7393245;19;20047;-69
2022/01/15 05:33:33;;;;;;;34.35;9.95;;;;;;;5.84;93.89;102336.69;7393079;19;20693;-68
2022/01/15 05:36:00;;;;;;;149.27;14.52;;;;;;;5.85;93.36;102327.91;7396342;19;20017;-67
2022/01/15 05:38:27;;;;;;;28.58;10.63;;;;;;;5.85;93.82;102320.06;7392414;19;20036;-68
2022/01/15 05:40:54;;;;;;;33.00;9.65;;;;;;;5.80;93.32;102325.56;7392269;19;20002;-68
2022/01/15 05:43:21;;;;;;;36.97;11.75;;;;;;;5.80;93.45;102327.31;7392526;19;20027;-65
2022/01/15 05:45:49;;;;;;;38.33;10.02;;;;;;;5.80;93.21;102322.09;7396383;19;20006;-66
2022/01/15 05:48:17;;;;;;;36.95;11.27;;;;;;;5.78;92.79;102319.59;7394666;19;20391;-66
2022/01/15 05:50:43;;;;;;;37.40;9.82;;;;;;;5.76;92.89;102323.19;7392507;19;20356;-67
2022/01/15 05:53:10;;;;;;;38.17;10.25;;;;;;;5.74;92.86;102318.06;7391394;19;20078;-66
2022/01/15 05:55:37;;;;;;;38.08;10.75;;;;;;;5.76;93.16;102316.22;7390419;19;20014;-68
2022/01/15 05:58:11;;;;;;;31.15;10.20;;;;;;;5.79;93.09;102320.44;7392918;19;20057;-68
2022/01/15 06:00:38;;;;;;;33.45;9.63;;;;;;;5.78;93.36;102318.75;7395873;19;20017;-67
2022/01/15 06:03:05;;;;;;;30.92;10.75;;;;;;;5.75;93.18;102317.13;7394054;19;20131;-68
2022/01/15 06:05:32;;;;;;;42.60;12.95;;;;;;;5.77;93.08;102311.84;7391703;19;20046;-69
2022/01/15 06:08:01;;;;;;;34.28;10.80;;;;;;;5.77;93.32;102311.84;7395251;19;20011;-66
2022/01/15 06:10:34;;;;;;;34.78;10.13;;;;;;;5.76;93.21;102313.59;7394520;19;20070;-66
2022/01/15 06:13:02;;;;;;;65.70;12.57;;;;;;;5.77;93.24;102309.22;7390980;19;20009;-67
2022/01/15 06:15:29;;;;;;;38.08;10.63;;;;;;;5.77;93.53;102319.66;7391318;19;20503;-67
2022/01/15 06:17:56;;;;;;;104.65;13.68;;;;;;;5.73;93.56;102320.78;7390095;19;20158;-67
2022/01/15 06:20:23;;;;;;;65.72;12.95;;;;;;;5.74;93.66;102317.25;7390179;19;20011;-66
2022/01/15 06:22:50;;;;;;;28.85;10.15;;;;;;;5.76;93.83;102317.97;7391443;19;20010;-67
2022/01/15 06:25:17;;;;;;;91.38;11.82;;;;;;;5.74;93.69;102312.84;7389284;19;20010;-66
2022/01/15 06:27:44;;;;;;;55.40;10.52;;;;;;;5.80;93.86;102319.50;7391584;19;20030;-66
2022/01/15 06:30:11;;;;;;;274.75;20.02;;;;;;;5.77;93.95;102317.91;7393557;19;20512;-66
2022/01/15 06:32:38;;;;;;;61.75;13.52;;;;;;;5.80;94.98;102309.88;7393310;19;20021;-65
2022/01/15 06:35:13;;;;;;;67.80;12.60;;;;;;;5.80;95.03;102309.03;7389517;19;20138;-66
2022/01/15 06:37:40;;;;;;;120.20;14.55;;;;;;;5.80;95.37;102306.44;7388588;19;20105;-66
2022/01/15 06:40:08;;;;;;;81.63;14.13;;;;;;;5.81;95.28;102295.91;7390986;19;20514;-66
2022/01/15 06:42:36;;;;;;;83.75;13.25;;;;;;;5.79;95.23;102287.31;7390902;19;20013;-67
2022/01/15 06:45:04;;;;;;;37.90;12.10;;;;;;;5.82;94.85;102276.72;7393532;19;20067;-66
2022/01/15 06:47:32;;;;;;;49.70;12.18;;;;;;;5.82;94.37;102279.31;7392221;19;20010;-66
2022/01/15 06:50:04;;;;;;;33.95;11.20;;;;;;;5.86;94.93;102272.16;7390551;19;20014;-66
2022/01/15 06:52:34;;;;;;;53.63;11.15;;;;;;;5.88;94.38;102270.34;7390361;19;20028;-66
2022/01/15 06:55:02;;;;;;;31.83;10.32;;;;;;;5.96;94.75;102273.34;7389705;19;20449;-67
2022/01/15 06:57:29;;;;;;;30.33;10.02;;;;;;;5.95;94.65;102271.66;7390666;19;20011;-67
2022/01/15 06:59:56;;;;;;;210.38;16.20;;;;;;;5.95;94.34;102264.66;7392561;19;20006;-65
2022/01/15 07:02:23;;;;;;;32.25;10.13;;;;;;;5.99;94.50;102266.16;7389791;19;20013;-68
2022/01/15 07:04:50;;;;;;;31.00;9.05;;;;;;;5.98;94.37;102261.91;7389753;19;20486;-67
2022/01/15 07:07:17;;;;;;;28.60;8.30;;;;;;;5.96;94.49;102268.13;7392759;19;20472;-68
2022/01/15 07:09:43;;;;;;;27.63;9.30;;;;;;;6.00;94.28;102260.00;7389759;19;20082;-68
2022/01/15 07:12:11;;;;;;;32.90;8.88;;;;;;;6.04;94.17;102265.94;7392549;19;20351;-68
2022/01/15 07:14:37;;;;;;;36.75;10.38;;;;;;;6.10;94.49;102260.31;7388350;19;20010;-68
2022/01/15 07:17:13;;;;;;;34.17;9.77;;;;;;;6.13;94.34;102262.78;7386792;19;20006;-68
2022/01/15 07:19:58;;;;;;;32.90;9.15;;;;;;;6.16;93.92;102261.75;7385700;19;20034;-68
2022/01/15 07:22:32;;;;;;;34.70;8.77;;;;;;;6.15;94.10;102262.66;7389428;19;20018;-67
2022/01/15 07:25:03;;;;;;;43.17;11.32;;;;;;;6.17;94.27;102264.28;7390468;19;20043;-66
2022/01/15 07:27:30;;;;;;;31.95;8.20;;;;;;;6.17;94.79;102263.44;7389384;19;20011;-68
2022/01/15 07:29:58;;;;;;;29.80;10.02;;;;;;;6.18;94.71;102260.75;7392055;19;20018;-68
2022/01/15 07:32:25;;;;;;;79.45;13.00;;;;;;;6.18;94.74;102255.50;7390802;19;20019;-68
2022/01/15 07:34:52;;;;;;;36.60;9.85;;;;;;;6.22;95.45;102259.63;7394093;19;20086;-68
2022/01/15 07:37:19;;;;;;;108.03;12.73;;;;;;;6.22;95.14;102256.16;7394638;19;20444;-68
2022/01/15 07:39:46;;;;;;;66.30;13.43;;;;;;;6.22;95.40;102253.56;7396807;19;20002;-68
2022/01/15 07:42:14;;;;;;;30.83;9.77;;;;;;;6.24;95.11;102254.31;7395885;19;20009;-68
2022/01/15 07:44:40;;;;;;;252.65;16.48;;;;;;;6.26;95.21;102250.66;7398366;19;20021;-66
2022/01/15 07:47:08;;;;;;;368.45;23.52;;;;;;;6.31;96.51;102250.41;7396321;19;20074;-67
2022/01/15 07:49:35;;;;;;;605.55;33.22;;;;;;;6.40;97.32;102255.91;7396850;19;20018;-68
2022/01/15 07:52:02;;;;;;;40.83;11.45;;;;;;;6.47;98.06;102253.81;7396108;19;20352;-66
2022/01/15 07:54:29;;;;;;;223.63;17.98;;;;;;;6.42;97.67;102248.84;7393916;19;20014;-67
2022/01/15 07:56:58;;;;;;;42.60;11.00;;;;;;;6.44;97.32;102259.22;7396244;19;20611;-68
2022/01/15 07:59:25;;;;;;;36.75;9.88;;;;;;;6.40;97.10;102250.69;7398418;19;20355;-68
2022/01/15 08:01:52;;;;;;;228.60;15.60;;;;;;;6.42;96.88;102258.47;7395986;19;20014;-67
2022/01/15 08:04:19;;;;;;;35.88;9.63;;;;;;;6.44;97.25;102254.00;7395469;19;20011;-67
2022/01/15 08:06:46;;;;;;;43.58;12.07;;;;;;;6.46;96.94;102262.56;7395245;19;20010;-67
2022/01/15 08:09:13;;;;;;;142.18;14.27;;;;;;;6.51;97.50;102270.13;7394540;19;20015;-68
2022/01/15 08:11:39;;;;;;;284.92;19.02;;;;;;;6.57;97.66;102267.16;7398583;19;20017;-67
2022/01/15 08:14:06;;;;;;;286.20;19.30;;;;;;;6.57;97.52;102265.38;7394165;19;20085;-68
2022/01/15 08:16:33;;;;;;;50.20;14.52;;;;;;;6.60;97.54;102261.78;7394548;19;20018;-67
2022/01/15 08:19:00;;;;;;;192.20;16.00;;;;;;;6.56;96.68;102255.00;7395342;19;20473;-68
2022/01/15 08:21:27;;;;;;;43.35;10.90;;;;;;;6.58;96.54;102264.47;7397980;19;20413;-68
2022/01/15 08:23:54;;;;;;;36.22;8.88;;;;;;;6.59;96.07;102263.53;7395457;19;20049;-67
2022/01/15 08:26:21;;;;;;;37.65;10.45;;;;;;;6.54;95.38;102269.97;7396806;19;20608;-67
2022/01/15 08:28:54;;;;;;;43.60;10.60;;;;;;;6.51;95.43;102280.59;7394679;19;20029;-68
2022/01/15 08:31:27;;;;;;;40.40;10.90;;;;;;;6.50;95.12;102277.16;7394815;19;20411;-68
2022/01/15 08:33:59;;;;;;;41.70;10.93;;;;;;;6.51;94.92;102278.81;7395919;19;20006;-67
2022/01/15 08:36:36;;;;;;;43.77;10.57;;;;;;;6.52;94.78;102279.66;7393217;19;20512;-67
2022/01/15 08:39:08;;;;;;;44.42;11.82;;;;;;;6.52;94.69;102283.13;7395067;19;20722;-68
2022/01/15 08:41:35;;;;;;;41.10;11.63;;;;;;;6.52;94.81;102283.13;7398870;19;20014;-68
2022/01/15 08:44:03;;;;;;;38.95;11.20;;;;;;;6.50;94.87;102277.16;7395210;19;20351;-67
2022/01/15 08:46:30;;;;;;;47.10;11.88;;;;;;;6.49;94.89;102280.69;7394990;19;20018;-66
2022/01/15 08:48:57;;;;;;;57.85;12.25;;;;;;;6.53;95.03;102283.97;7394337;19;20086;-66
2022/01/15 08:51:24;;;;;;;52.45;13.23;;;;;;;6.60;95.86;102272.22;7393546;19;20018;-67
2022/01/15 08:53:51;;;;;;;290.75;23.85;;;;;;;6.60;95.65;102275.69;7393322;19;20303;-69
2022/01/15 08:56:18;;;;;;;85.32;14.57;;;;;;;6.66;96.04;102277.91;7394425;19;20015;-68
2022/01/15 08:58:45;;;;;;;78.93;13.75;;;;;;;6.65;95.93;102271.03;7395199;19;20434;-67
2022/01/15 09:01:13;;;;;;;171.05;17.83;;;;;;;6.64;95.73;102271.09;7394425;19;20021;-68
2022/01/15 09:03:41;;;;;;;357.90;26.75;;;;;;;6.67;95.79;102274.38;7394958;19;20010;-68
2022/01/15 09:06:10;;;;;;;87.40;16.17;;;;;;;6.69;96.12;102264.66;7394867;19;20021;-68
2022/01/15 09:08:37;;;;;;;45.17;12.27;;;;;;;6.71;95.77;102269.78;7393997;19;20062;-68
2022/01/15 09:11:03;;;;;;;136.63;15.43;;;;;;;6.74;95.89;102261.78;7394924;19;20011;-68
2022/01/15 09:13:30;;;;;;;190.52;19.70;;;;;;;6.74;95.86;102254.78;7391544;19;20346;-67
2022/01/15 09:15:57;;;;;;;69.47;15.45;;;;;;;6.77;96.51;102246.72;7393851;19;20182;-68
2022/01/15 09:18:24;;;;;;;120.53;16.90;;;;;;;6.76;96.05;102246.81;7391760;19;20638;-67
2022/01/15 09:20:51;;;;;;;50.80;12.32;;;;;;;6.76;95.98;102252.88;7396185;19;20010;-68
2022/01/15 09:23:19;;;;;;;47.15;12.32;;;;;;;6.70;94.89;102248.06;7395553;19;20077;-68
2022/01/15 09:25:46;;;;;;;92.53;13.75;;;;;;;6.68;94.83;102254.28;7395932;19;20007;-68
2022/01/15 09:30:59;;;;;;;244.35;19.55;;;;;;;6.67;94.70;102255.22;7392959;19;20597;-69
2022/01/15 09:33:26;;;;;;;50.25;13.60;;;;;;;6.72;95.37;102254.00;7392961;19;20017;-67
2022/01/15 09:35:53;;;;;;;495.25;32.22;;;;;;;6.75;95.22;102253.84;7392552;19;20011;-69
2022/01/15 09:38:21;;;;;;;112.50;15.18;;;;;;;6.78;95.38;102253.66;7392847;19;20032;-68
2022/01/15 09:40:51;;;;;;;106.15;14.85;;;;;;;6.78;95.23;102253.66;7395986;19;20011;-68
2022/01/15 09:43:25;;;;;;;194.30;20.25;;;;;;;6.80;95.25;102253.56;7391070;19;20476;-68
2022/01/15 09:45:59;;;;;;;46.55;15.77;;;;;;;6.80;95.41;102251.78;7392041;19;20018;-68
2022/01/15 09:48:51;;;;;;;51.85;15.45;;;;;;;6.81;95.19;102256.06;7395073;19;20006;-68
2022/01/15 09:51:31;;;;;;;60.17;13.65;;;;;;;6.82;94.57;102251.69;7392892;19;20440;-69
2022/01/15 09:54:04;;;;;;;137.03;19.33;;;;;;;6.83;94.42;102251.59;7388111;19;20046;-68
2022/01/15 09:56:43;;;;;;;93.28;15.55;;;;;;;6.86;94.96;102245.31;7393939;19;20014;-65
2022/01/15 09:59:15;;;;;;;59.78;16.98;;;;;;;6.89;95.06;102253.00;7392665;19;20027;-65
2022/01/15 10:01:42;;;;;;;50.90;15.15;;;;;;;6.91;95.23;102245.88;7392792;19;20006;-68
2022/01/15 10:04:09;;;;;;;95.65;16.88;;;;;;;6.95;94.86;102236.94;7392141;19;20011;-69
2022/01/15 10:06:36;;;;;;;41.70;14.80;;;;;;;6.90;94.35;102238.16;7392956;19;20040;-66
2022/01/15 10:09:07;;;;;;;247.73;22.23;;;;;;;6.89;93.98;102237.31;7389319;19;20074;-68
2022/01/15 10:11:47;;;;;;;279.95;24.60;;;;;;;6.95;94.57;102230.84;7393846;19;20114;-69
2022/01/15 10:14:37;;;;;;;48.50;15.85;;;;;;;6.99;94.68;102237.56;7391164;19;20459;-68
2022/01/15 10:17:20;;;;;;;46.25;15.85;;;;;;;7.02;94.20;102221.66;7392033;19;20014;-66
2022/01/15 10:19:50;;;;;;;49.75;17.20;;;;;;;7.01;93.81;102214.78;7390592;19;20011;-68
2022/01/15 10:22:24;;;;;;;52.00;15.35;;;;;;;7.04;93.63;102219.81;7391517;19;20017;-67
2022/01/15 10:24:57;;;;;;;65.35;17.70;;;;;;;7.07;93.46;102215.22;7388975;19;20535;-67
2022/01/15 10:27:24;;;;;;;83.22;17.42;;;;;;;7.10;93.38;102204.56;7393671;19;20018;-66
2022/01/15 10:29:59;;;;;;;407.48;31.65;;;;;;;7.10;93.46;102198.50;7394095;19;20077;-67
2022/01/15 10:32:30;;;;;;;43.60;15.63;;;;;;;7.13;93.32;102203.53;7391767;19;20043;-67
2022/01/15 10:34:57;;;;;;;68.38;20.92;;;;;;;7.15;93.30;102207.75;7393322;19;19999;-68
2022/01/15 10:37:33;;;;;;;45.63;15.43;;;;;;;7.16;92.75;102198.13;7392769;19;20014;-67
2022/01/15 10:40:06;;;;;;;52.70;15.68;;;;;;;7.22;92.93;102190.69;7392648;19;20016;-67
2022/01/15 10:42:35;;;;;;;53.05;19.42;;;;;;;7.26;92.11;102202.66;7393921;19;20014;-68
2022/01/15 10:45:09;;;;;;;51.88;16.15;;;;;;;7.25;91.77;102201.00;7392133;19;20021;-67
2022/01/15 10:47:47;;;;;;;42.70;14.48;;;;;;;7.26;91.51;102209.69;7394268;19;20593;-67
2022/01/15 10:50:37;;;;;;;51.53;16.58;;;;;;;7.32;91.00;102201.41;7391914;19;20028;-68
2022/01/15 10:53:10;;;;;;;43.08;15.23;;;;;;;7.32;90.96;102204.03;7394608;19;20021;-68
2022/01/15 10:55:39;;;;;;;44.90;17.13;;;;;;;7.35;90.52;102201.25;7392251;19;20033;-67
2022/01/15 10:58:12;;;;;;;60.80;19.52;;;;;;;7.43;90.92;102201.59;7391551;19;20013;-69
2022/01/15 11:00:51;;;;;;;53.00;19.38;;;;;;;7.48;91.67;102199.50;7391572;19;20014;-68
2022/01/15 11:03:22;;;;;;;42.53;15.07;;;;;;;7.51;91.33;102194.09;7392488;19;20325;-69
2022/01/15 11:05:57;;;;;;;47.65;17.45;;;;;;;7.57;91.01;102198.06;7393378;19;20117;-67
2022/01/15 11:09:00;;;;;;;47.78;18.02;;;;;;;7.63;91.02;102200.28;7392975;19;20488;-69
2022/01/15 11:11:52;;;;;;;48.05;18.40;;;;;;;7.62;89.98;102190.75;7391274;19;20010;-67
2022/01/15 11:14:21;;;;;;;48.35;17.48;;;;;;;7.63;89.38;102195.06;7391763;19;20031;-67
2022/01/15 11:16:48;;;;;;;79.03;22.02;;;;;;;7.68;89.11;102191.19;7393834;19;20076;-66
2022/01/15 11:19:15;;;;;;;46.60;17.73;;;;;;;7.70;89.23;102186.72;7392433;19;20011;-68
2022/01/15 11:21:43;;;;;;;51.03;19.58;;;;;;;7.78;89.24;102186.19;7390538;19;20035;-66
2022/01/15 11:24:10;;;;;;;42.90;17.80;;;;;;;7.88;90.05;102183.81;7392009;19;20734;-68
2022/01/15 11:26:38;;;;;;;68.50;20.90;;;;;;;7.99;91.37;102178.69;7392681;19;20031;-69
2022/01/15 11:29:06;;;;;;;60.80;22.05;;;;;;;8.03;90.61;102182.78;7393379;19;20258;-69
2022/01/15 11:31:35;;;;;;;50.25;19.33;;;;;;;8.06;90.14;102177.34;7392419;19;20031;-69
2022/01/15 11:34:05;;;;;;;49.45;16.98;;;;;;;8.06;89.25;102183.44;7391218;19;20043;-68
2022/01/15 11:36:33;;;;;;;52.95;20.13;;;;;;;8.08;88.91;102181.53;7392013;19;20046;-66
2022/01/15 11:39:05;;;;;;;50.63;19.02;;;;;;;8.10;89.38;102171.78;7391951;19;20015;-68
2022/01/15 11:41:32;;;;;;;54.42;19.40;;;;;;;8.09;88.55;102180.59;7391869;19;20010;-67
2022/01/15 11:44:00;;;;;;;48.28;19.08;;;;;;;8.07;87.99;102179.88;7388984;19;20013;-68
2022/01/15 11:46:31;;;;;;;101.90;25.33;;;;;;;8.12;88.38;102179.56;7393338;19;20488;-67
2022/01/15 11:49:32;;;;;;;51.58;20.02;;;;;;;8.18;89.28;102175.69;7393311;19;20019;-66
2022/01/15 11:52:11;;;;;;;74.28;23.70;;;;;;;8.16;88.89;102176.63;7388767;19;20022;-68
2022/01/15 11:54:40;;;;;;;54.33;18.58;;;;;;;8.18;88.67;102180.94;7388019;19;20017;-68
2022/01/15 11:57:26;;;;;;;92.50;25.98;;;;;;;8.20;87.91;102182.50;7388283;19;20030;-68
2022/01/15 11:59:57;;;;;;;77.22;22.52;;;;;;;8.23;87.93;102168.34;7390845;19;20086;-66